createdAt,value
2018-05-08T00:00:52.108Z,6.30
2018-05-08T00:03:58.132Z,5.93
2018-05-08T00:07:04.104Z,6.40
2018-05-08T00:10:09.114Z,5.47
2018-05-08T00:13:14.349Z,4.83
2018-05-08T00:16:21.679Z,5.97
2018-05-08T00:19:26.990Z,6.50
2018-05-08T00:22:32.457Z,6.13
2018-05-08T00:25:38.681Z,5.83
2018-05-08T00:28:44.782Z,6.47
2018-05-08T00:31:50.757Z,6.50
2018-05-08T00:34:57.252Z,6.73
2018-05-08T00:38:03.247Z,6.60
2018-05-08T00:41:08.622Z,5.70
2018-05-08T00:44:14.776Z,6.30
2018-05-08T00:47:20.669Z,6.30
2018-05-08T00:50:26.772Z,6.43
2018-05-08T00:53:32.842Z,6.70
2018-05-08T00:56:39.035Z,7.97
2018-05-08T00:59:48.869Z,6.70
2018-05-08T01:02:55.078Z,6.10
2018-05-08T01:06:01.358Z,7.37
2018-05-08T01:09:07.307Z,6.73
2018-05-08T01:12:13.325Z,7.57
2018-05-08T01:15:19.251Z,7.27
2018-05-08T01:18:25.253Z,6.83
2018-05-08T01:21:31.195Z,7.43
2018-05-08T01:24:37.490Z,7.97
2018-05-08T01:27:42.916Z,7.63
2018-05-08T01:30:48.277Z,7.57
2018-05-08T01:33:54.220Z,7.13
2018-05-08T01:37:00.637Z,7.93
2018-05-08T01:40:06.808Z,7.87
2018-05-08T01:43:12.815Z,9.00
2018-05-08T01:46:18.900Z,8.50
2018-05-08T01:49:25.208Z,8.37
2018-05-08T01:52:31.289Z,9.00
2018-05-08T01:55:36.512Z,9.23
2018-05-08T01:58:42.553Z,8.43
2018-05-08T02:01:48.044Z,8.70
2018-05-08T02:04:54.001Z,8.83
2018-05-08T02:07:59.921Z,8.20
2018-05-08T02:11:06.002Z,8.33
2018-05-08T02:14:11.969Z,8.90
2018-05-08T02:17:21.410Z,8.10
2018-05-08T02:20:27.667Z,8.70
2018-05-08T02:23:33.642Z,8.57
2018-05-08T02:26:39.569Z,8.87
2018-05-08T02:29:45.913Z,8.63
2018-05-08T02:32:51.918Z,8.83
2018-05-08T02:35:58.063Z,9.40
2018-05-08T02:39:05.100Z,8.20
2018-05-08T02:42:10.208Z,7.57
2018-05-08T02:45:15.448Z,8.40
2018-05-08T02:48:21.716Z,8.07
2018-05-08T02:51:27.787Z,10.40
2018-05-08T02:54:33.246Z,7.83
2018-05-08T02:57:38.339Z,9.83
2018-05-08T03:00:43.487Z,8.93
2018-05-08T03:03:49.699Z,8.53
2018-05-08T03:06:55.704Z,8.20
2018-05-08T03:10:01.711Z,7.90
2018-05-08T03:13:07.801Z,8.33
2018-05-08T03:16:13.758Z,9.13
2018-05-08T03:19:19.685Z,9.97
2018-05-08T03:22:25.625Z,9.63
2018-05-08T03:25:31.417Z,9.23
2018-05-08T03:28:37.522Z,8.80
2018-05-08T03:31:43.543Z,9.33
2018-05-08T03:34:49.493Z,9.57
2018-05-08T03:37:55.575Z,8.60
2018-05-08T03:41:01.595Z,9.43
2018-05-08T03:44:06.886Z,9.43
2018-05-08T03:47:13.045Z,7.90
2018-05-08T03:50:19.242Z,9.13
2018-05-08T03:53:25.591Z,8.13
2018-05-08T03:56:31.670Z,8.23
2018-05-08T03:59:37.335Z,8.27
2018-05-08T04:02:55.133Z,9.33
2018-05-08T04:06:15.055Z,8.47
2018-05-08T04:09:20.537Z,8.63
2018-05-08T04:12:26.534Z,8.27
2018-05-08T04:15:32.580Z,8.77
2018-05-08T04:18:38.456Z,7.57
2018-05-08T04:21:45.068Z,8.80
2018-05-08T04:24:51.654Z,8.70
2018-05-08T04:27:57.627Z,9.30
2018-05-08T04:31:02.798Z,10.50
2018-05-08T04:34:08.701Z,8.57
2018-05-08T04:37:14.591Z,8.60
2018-05-08T04:40:20.510Z,8.40
2018-05-08T04:43:26.495Z,8.50
2018-05-08T04:46:32.653Z,8.80
2018-05-08T04:49:38.985Z,9.10
2018-05-08T04:52:44.805Z,8.03
2018-05-08T04:55:50.935Z,8.63
2018-05-08T04:58:57.072Z,8.50
2018-05-08T05:02:02.092Z,8.40
2018-05-08T05:05:08.486Z,8.90
2018-05-08T05:08:14.453Z,8.10
2018-05-08T05:11:19.937Z,7.90
2018-05-08T05:14:25.988Z,7.70
2018-05-08T05:17:31.985Z,7.77
2018-05-08T05:20:37.971Z,7.70
2018-05-08T05:23:44.060Z,7.43
2018-05-08T05:26:49.223Z,6.90
2018-05-08T05:29:54.993Z,7.63
2018-05-08T05:33:01.482Z,6.50
2018-05-08T05:36:08.255Z,6.43
2018-05-08T05:39:14.345Z,5.80
2018-05-08T05:42:20.423Z,6.17
2018-05-08T05:45:26.361Z,6.27
2018-05-08T05:48:32.384Z,6.07
2018-05-08T05:51:38.344Z,6.63
2018-05-08T05:54:44.458Z,5.87
2018-05-08T05:57:50.571Z,5.53
2018-05-08T06:00:56.454Z,5.57
2018-05-08T06:04:02.567Z,5.80
2018-05-08T06:07:08.364Z,5.70
2018-05-08T06:10:14.483Z,5.70
2018-05-08T06:13:20.545Z,5.30
2018-05-08T06:16:25.738Z,5.87
2018-05-08T06:19:31.026Z,6.60
2018-05-08T06:22:37.516Z,5.77
2018-05-08T06:25:44.430Z,5.50
2018-05-08T06:28:49.703Z,5.67
2018-05-08T06:31:55.835Z,6.33
2018-05-08T06:35:15.706Z,6.23
2018-05-08T06:38:21.726Z,6.33
2018-05-08T06:41:27.409Z,5.70
2018-05-08T06:44:33.270Z,5.57
2018-05-08T06:47:39.274Z,5.77
2018-05-08T06:50:45.229Z,5.27
2018-05-08T06:53:51.359Z,5.10
2018-05-08T06:56:57.350Z,5.20
2018-05-08T07:00:03.193Z,5.70
2018-05-08T07:03:10.283Z,5.20
2018-05-08T07:19:38.148Z,5.30
2018-05-08T07:22:43.439Z,6.30
2018-05-08T07:25:49.372Z,5.43
2018-05-08T07:28:55.236Z,6.30
2018-05-08T07:32:01.299Z,5.60
2018-05-08T07:35:07.229Z,6.07
2018-05-08T07:38:13.156Z,5.70
2018-05-08T07:41:19.040Z,5.77
2018-05-08T07:44:24.339Z,6.10
2018-05-08T07:47:30.177Z,5.40
2018-05-08T07:50:36.138Z,5.90
2018-05-08T07:53:41.809Z,4.87
2018-05-08T07:56:47.743Z,5.00
2018-05-08T07:59:53.497Z,5.00
2018-05-08T08:02:59.428Z,4.80
2018-05-08T08:06:05.145Z,5.20
2018-05-08T08:09:11.098Z,6.17
2018-05-08T08:12:17.149Z,4.27
2018-05-08T08:15:23.172Z,5.30
2018-05-08T08:18:29.160Z,4.60
2018-05-08T08:21:35.290Z,5.20
2018-05-08T08:24:40.605Z,4.40
2018-05-08T08:27:46.645Z,5.70
2018-05-08T08:30:52.780Z,5.10
2018-05-08T08:33:58.903Z,5.73
2018-05-08T08:37:04.872Z,4.90
2018-05-08T08:40:10.797Z,5.43
2018-05-08T08:43:16.751Z,5.73
2018-05-08T08:46:22.715Z,5.37
2018-05-08T08:49:28.824Z,5.80
2018-05-08T08:52:35.072Z,5.03
2018-05-08T08:55:41.188Z,5.23
2018-05-08T08:58:47.318Z,5.70
2018-05-08T09:01:53.310Z,5.73
2018-05-08T09:05:00.126Z,5.17
2018-05-08T09:08:06.050Z,6.30
2018-05-08T09:11:12.155Z,5.50
2018-05-08T09:14:18.103Z,5.90
2018-05-08T09:17:24.402Z,5.23
2018-05-08T09:20:29.665Z,5.93
2018-05-08T09:23:35.840Z,5.83
2018-05-08T09:26:41.833Z,6.10
2018-05-08T09:29:47.813Z,6.00
2018-05-08T09:32:53.983Z,6.60
2018-05-08T09:35:59.924Z,5.60
2018-05-08T09:39:06.013Z,6.17
2018-05-08T09:42:12.039Z,6.60
2018-05-08T09:45:18.415Z,6.03
2018-05-08T09:48:24.322Z,5.50
2018-05-08T09:51:30.375Z,6.10
2018-05-08T09:54:35.786Z,5.50
2018-05-08T09:57:41.755Z,5.37
2018-05-08T10:00:47.090Z,5.60
2018-05-08T10:03:53.194Z,4.57
2018-05-08T10:06:59.028Z,5.53
2018-05-08T10:10:04.313Z,5.43
2018-05-08T10:13:10.304Z,4.73
2018-05-08T10:16:16.370Z,4.80
2018-05-08T10:19:21.471Z,4.97
2018-05-08T10:22:27.476Z,4.67
2018-05-08T10:25:32.550Z,4.50
2018-05-08T10:28:38.419Z,4.40
2018-05-08T10:31:43.574Z,4.30
2018-05-08T10:34:49.868Z,4.40
2018-05-08T10:37:55.829Z,4.60
2018-05-08T10:41:01.797Z,5.20
2018-05-08T10:44:08.068Z,4.60
2018-05-08T10:47:14.196Z,4.47
2018-05-08T10:50:21.097Z,5.27
2018-05-08T10:53:27.348Z,4.70
2018-05-08T10:56:33.229Z,4.70
2018-05-08T10:59:39.341Z,4.60
2018-05-08T11:02:45.593Z,4.23
2018-05-08T11:05:51.527Z,4.80
2018-05-08T11:08:57.769Z,4.50
2018-05-08T11:12:03.805Z,4.40
2018-05-08T11:15:09.850Z,4.83
2018-05-08T11:18:15.779Z,3.63
2018-05-08T11:21:23.887Z,3.73
2018-05-08T11:24:28.916Z,4.30
2018-05-08T11:27:35.117Z,4.37
2018-05-08T11:30:41.185Z,3.93
2018-05-08T11:33:47.351Z,3.67
2018-05-08T11:36:53.272Z,4.60
2018-05-08T11:39:59.361Z,4.53
2018-05-08T11:43:05.250Z,4.23
2018-05-08T11:46:11.585Z,4.03
2018-05-08T11:49:17.612Z,4.13
2018-05-08T11:52:23.648Z,4.83
2018-05-08T11:55:29.634Z,4.50
2018-05-08T11:58:35.653Z,4.50
2018-05-08T12:01:41.655Z,4.17
2018-05-08T12:04:47.752Z,4.10
2018-05-08T12:07:53.440Z,3.83
2018-05-08T12:10:59.694Z,3.70
2018-05-08T12:14:05.588Z,3.90
2018-05-08T12:17:11.658Z,4.60
2018-05-08T12:20:17.585Z,4.30
2018-05-08T12:23:23.620Z,3.70
2018-05-08T12:26:30.380Z,4.03
2018-05-08T12:29:35.714Z,3.63
2018-05-08T12:32:41.840Z,4.17
2018-05-08T12:35:47.839Z,3.33
2018-05-08T12:38:53.129Z,4.50
2018-05-08T12:41:59.196Z,3.87
2018-05-08T12:45:05.392Z,3.67
2018-05-08T12:48:11.333Z,3.50
2018-05-08T12:51:17.149Z,3.60
2018-05-08T12:54:23.429Z,3.10
2018-05-08T12:57:29.587Z,3.60
2018-05-08T13:00:35.588Z,4.40
2018-05-08T13:03:41.684Z,3.93
2018-05-08T13:06:47.526Z,3.40
2018-05-08T13:09:53.480Z,3.63
2018-05-08T13:12:58.825Z,4.10
2018-05-08T13:16:04.936Z,3.70
2018-05-08T13:19:10.618Z,3.50
2018-05-08T13:22:17.429Z,3.37
2018-05-08T13:25:23.274Z,4.30
2018-05-08T13:28:29.800Z,2.70
2018-05-08T13:31:35.693Z,3.40
2018-05-08T13:34:42.758Z,3.50
2018-05-08T13:37:48.927Z,2.90
2018-05-08T13:40:54.967Z,3.07
2018-05-08T13:44:00.103Z,3.20
2018-05-08T13:47:06.203Z,4.30
2018-05-08T13:50:11.588Z,3.00
2018-05-08T13:53:17.459Z,2.40
2018-05-08T13:56:23.481Z,2.27
2018-05-08T13:59:29.454Z,2.90
2018-05-08T14:02:35.297Z,2.97
2018-05-08T14:05:41.260Z,2.93
2018-05-08T14:08:48.447Z,3.07
2018-05-08T14:11:54.435Z,3.00
2018-05-08T14:15:00.279Z,2.80
2018-05-08T14:18:06.187Z,2.73
2018-05-08T14:21:12.228Z,2.80
2018-05-08T14:24:18.226Z,2.73
2018-05-08T14:27:24.275Z,2.90
2018-05-08T14:30:30.141Z,3.20
2018-05-08T14:33:36.093Z,3.20
2018-05-08T14:36:41.339Z,3.33
2018-05-08T14:39:47.196Z,3.30
2018-05-08T14:42:53.117Z,3.67
2018-05-08T14:45:58.940Z,4.20
2018-05-08T14:49:05.148Z,3.33
2018-05-08T14:52:11.239Z,3.83
2018-05-08T14:55:17.382Z,3.47
2018-05-08T14:58:22.530Z,4.10
2018-05-08T15:01:28.475Z,3.23
2018-05-08T15:04:34.445Z,2.73
2018-05-08T15:07:40.503Z,3.10
2018-05-08T15:10:46.384Z,2.53
2018-05-08T15:13:53.303Z,2.90
2018-05-08T15:16:59.168Z,3.57
2018-05-08T15:20:05.099Z,3.07
2018-05-08T15:23:11.232Z,2.90
2018-05-08T15:26:18.328Z,3.10
2018-05-08T15:29:27.027Z,2.80
2018-05-08T15:32:33.811Z,2.60
2018-05-08T15:35:40.776Z,2.90
2018-05-08T15:38:46.793Z,3.30
2018-05-08T15:41:53.864Z,2.83
2018-05-08T15:45:00.743Z,2.80
2018-05-08T15:48:07.495Z,2.57
2018-05-08T15:51:14.605Z,3.17
2018-05-08T15:54:22.682Z,2.93
2018-05-08T15:57:32.316Z,2.93
2018-05-08T16:00:39.965Z,3.00
2018-05-08T16:03:47.862Z,2.63
2018-05-08T16:06:54.772Z,3.20
2018-05-08T16:10:01.683Z,2.90
2018-05-08T16:13:07.654Z,2.83
2018-05-08T16:16:14.453Z,2.80
2018-05-08T16:19:20.469Z,3.00
2018-05-08T16:22:26.276Z,3.17
2018-05-08T16:25:32.234Z,2.70
2018-05-08T16:28:38.196Z,3.30
2018-05-08T16:31:44.201Z,3.10
2018-05-08T16:34:50.228Z,3.30
2018-05-08T16:37:56.243Z,2.77
2018-05-08T16:41:02.352Z,2.73
2018-05-08T16:44:08.482Z,2.80
2018-05-08T16:47:13.733Z,2.70
2018-05-08T16:50:20.395Z,2.80
2018-05-08T16:53:26.612Z,2.90
2018-05-08T16:56:32.682Z,2.70
2018-05-08T16:59:39.000Z,3.33
2018-05-08T17:02:45.718Z,2.97
2018-05-08T17:05:52.108Z,3.17
2018-05-08T17:08:58.078Z,2.63
2018-05-08T17:12:04.036Z,3.20
2018-05-08T17:15:11.712Z,2.67
2018-05-08T17:18:18.897Z,3.30
2018-05-08T17:21:25.647Z,2.97
2018-05-08T17:24:32.588Z,2.90
2018-05-08T17:27:38.586Z,2.60
2018-05-08T17:30:44.361Z,3.00
2018-05-08T17:33:50.351Z,2.80
2018-05-08T17:36:57.121Z,2.70
2018-05-08T17:40:03.837Z,5.13
2018-05-08T17:43:09.988Z,2.50
2018-05-08T17:46:17.586Z,2.43
2018-05-08T17:49:24.575Z,2.87
2018-05-08T17:52:30.624Z,2.83
2018-05-08T17:55:37.334Z,3.10
2018-05-08T17:58:44.379Z,2.63
2018-05-08T18:01:51.371Z,2.43
2018-05-08T18:04:58.017Z,2.50
2018-05-08T18:08:05.472Z,2.97
2018-05-08T18:11:12.266Z,2.83
2018-05-08T18:14:18.470Z,3.00
2018-05-08T18:17:25.635Z,2.50
2018-05-08T18:20:31.844Z,2.80
2018-05-08T18:23:38.690Z,3.17
2018-05-08T18:26:44.618Z,3.27
2018-05-08T18:29:51.851Z,3.70
2018-05-08T18:32:58.850Z,3.07
2018-05-08T18:36:04.685Z,3.70
2018-05-08T18:39:10.534Z,3.57
2018-05-08T18:42:17.360Z,3.30
2018-05-08T18:45:22.868Z,3.80
2018-05-08T18:48:29.708Z,3.23
2018-05-08T18:51:37.733Z,3.40
2018-05-08T18:54:44.441Z,2.90
2018-05-08T18:57:50.472Z,3.60
2018-05-08T19:01:03.452Z,2.97
2018-05-08T19:04:09.596Z,3.50
2018-05-08T19:07:15.557Z,3.30
2018-05-08T19:10:23.535Z,3.23
2018-05-08T19:13:29.590Z,3.23
2018-05-08T19:16:35.328Z,3.50
2018-05-08T19:19:47.313Z,3.43
2018-05-08T19:22:53.417Z,3.20
2018-05-08T19:25:58.468Z,3.00
2018-05-08T19:29:10.860Z,3.47
2018-05-08T19:32:18.920Z,3.50
2018-05-08T19:35:34.703Z,3.77
2018-05-08T19:38:42.778Z,3.70
2018-05-08T19:41:50.768Z,4.00
2018-05-08T19:44:56.807Z,4.07
2018-05-08T19:48:05.945Z,3.77
2018-05-08T19:51:16.838Z,3.50
2018-05-08T19:54:27.963Z,3.20
2018-05-08T19:57:40.074Z,3.50
2018-05-08T20:00:48.175Z,4.00
2018-05-08T20:04:01.391Z,4.47
2018-05-08T20:07:09.336Z,3.60
2018-05-08T20:10:16.405Z,3.97
2018-05-08T20:13:22.502Z,3.77
2018-05-08T20:16:31.549Z,4.10
2018-05-08T20:19:39.437Z,4.27
2018-05-08T20:22:49.376Z,4.53
2018-05-08T20:25:56.359Z,5.30
2018-05-08T20:29:03.242Z,4.27
2018-05-08T20:32:09.341Z,3.90
2018-05-08T20:35:15.461Z,4.60
2018-05-08T20:38:23.227Z,4.53
2018-05-08T20:41:34.519Z,4.30
2018-05-08T20:44:46.697Z,5.13
2018-05-08T20:48:07.589Z,4.70
2018-05-08T20:51:16.436Z,4.33
2018-05-08T20:54:26.751Z,5.20
2018-05-08T20:57:37.825Z,4.83
2018-05-08T21:00:49.640Z,5.27
2018-05-08T21:03:58.488Z,5.23
2018-05-08T21:07:12.264Z,4.63
2018-05-08T21:10:23.190Z,5.30
2018-05-08T21:13:34.299Z,5.90
2018-05-08T21:16:43.149Z,5.80
2018-05-08T21:19:52.452Z,5.00
2018-05-08T21:23:02.978Z,5.57
2018-05-08T21:26:13.653Z,4.97
2018-05-08T21:29:29.435Z,5.00
2018-05-08T21:32:39.789Z,5.67
2018-05-08T21:35:47.894Z,4.63
2018-05-08T21:38:58.495Z,6.70
2018-05-08T21:42:06.484Z,5.50
2018-05-08T21:45:17.267Z,5.77
2018-05-08T21:48:27.662Z,5.27
2018-05-08T21:51:38.999Z,6.30
2018-05-08T21:54:57.745Z,5.80
2018-05-08T21:58:07.796Z,5.80
2018-05-08T22:01:17.799Z,6.63
2018-05-08T22:04:34.033Z,5.83
2018-05-08T22:07:48.672Z,6.07
2018-05-08T22:14:11.389Z,5.77
2018-05-08T22:17:21.262Z,4.90
2018-05-08T22:20:31.079Z,5.30
2018-05-08T22:23:40.260Z,6.00
2018-05-08T22:26:52.357Z,5.67
2018-05-08T22:30:06.747Z,5.63
2018-05-08T22:33:24.862Z,6.67
2018-05-08T22:36:34.893Z,6.40
2018-05-08T22:39:43.794Z,6.87
2018-05-08T22:42:56.992Z,6.90
2018-05-08T22:46:09.463Z,6.00
2018-05-08T22:49:21.293Z,6.70
2018-05-08T22:52:51.164Z,7.00
2018-05-08T22:55:58.850Z,6.80
2018-05-08T22:59:08.621Z,7.00
2018-05-08T23:02:16.615Z,6.20
2018-05-08T23:05:34.177Z,7.60
2018-05-08T23:08:42.170Z,6.17
2018-05-08T23:11:55.865Z,6.93
2018-05-08T23:15:05.326Z,7.53
2018-05-08T23:18:18.156Z,7.23
2018-05-08T23:21:32.972Z,8.23
2018-05-08T23:24:44.681Z,7.63
2018-05-08T23:28:00.774Z,8.13
2018-05-08T23:31:09.599Z,7.10
2018-05-08T23:38:55.828Z,7.80
2018-05-08T23:42:14.696Z,6.93
2018-05-08T23:45:30.374Z,7.70
2018-05-08T23:48:43.494Z,7.27
2018-05-08T23:55:19.927Z,7.63
